Time;durP1;ratioP1;P1;durP2;ratioP2;P2;SDS_P1;SDS_P2;PMS_P1;PMS_P2;Temp;Humidity;BMP_temperature;BMP_pressure;BME280_temperature;BME280_humidity;BME280_pressure;Samples;Min_cycle;Max_cycle;Signal;HPM_P1;HPM_P2
2023/08/06 00:02:20;;;;;;;11.48;8.50;;;;;;;18.54;100.00;99003.72;5587189;31;33839;-71
2023/08/06 00:05:23;;;;;;;13.40;8.73;;;;;;;18.52;100.00;99006.62;5587620;31;34017;-71
2023/08/06 00:08:25;;;;;;;11.20;8.43;;;;;;;18.49;100.00;99017.06;5587079;31;33648;-71
2023/08/06 00:11:28;;;;;;;12.02;8.85;;;;;;;18.50;100.00;99018.66;5587383;31;33921;-71
2023/08/06 00:14:31;;;;;;;12.20;9.20;;;;;;;18.56;100.00;99023.88;5587028;31;34532;-71
2023/08/06 00:17:34;;;;;;;14.57;10.20;;;;;;;18.59;100.00;99036.81;5587180;31;33632;-71
2023/08/06 00:20:41;;;;;;;15.52;10.32;;;;;;;18.68;100.00;99037.19;5587301;31;34588;-71
2023/08/06 00:23:44;;;;;;;18.35;11.05;;;;;;;18.81;100.00;99041.34;5587037;31;33561;-71
2023/08/06 00:26:46;;;;;;;16.80;10.75;;;;;;;18.84;100.00;99049.69;5587090;31;33950;-71
2023/08/06 00:29:49;;;;;;;17.20;11.02;;;;;;;18.91;100.00;99034.19;5586870;31;33901;-71
2023/08/06 00:32:51;;;;;;;16.27;10.68;;;;;;;18.94;100.00;99044.41;5586937;31;34779;-72
2023/08/06 00:35:54;;;;;;;19.00;11.55;;;;;;;18.96;100.00;99036.12;5587190;31;33881;-73
2023/08/06 00:38:57;;;;;;;17.58;11.55;;;;;;;18.94;100.00;99036.34;5586964;31;33711;-74
2023/08/06 00:42:00;;;;;;;22.83;12.27;;;;;;;18.95;100.00;99026.44;5586806;31;34438;-74
2023/08/06 00:45:03;;;;;;;22.98;12.37;;;;;;;18.95;100.00;99013.00;5585684;31;33725;-74
2023/08/06 00:48:07;;;;;;;21.42;11.60;;;;;;;18.97;100.00;98995.56;5586565;31;34070;-75
2023/08/06 00:51:11;;;;;;;16.77;11.27;;;;;;;19.04;100.00;98989.94;5587075;31;33709;-75
2023/08/06 00:54:14;;;;;;;18.60;12.37;;;;;;;18.96;100.00;98991.25;5586755;31;33940;-75
2023/08/06 00:57:16;;;;;;;22.92;12.85;;;;;;;18.99;100.00;98989.91;5585727;31;33661;-75
2023/08/06 01:00:20;;;;;;;20.33;13.18;;;;;;;19.00;100.00;98975.41;5586550;31;33751;-75
2023/08/06 01:03:24;;;;;;;18.17;12.32;;;;;;;19.00;100.00;98967.34;5586461;31;32501;-76
2023/08/06 01:06:39;;;;;;;20.90;12.63;;;;;;;18.99;100.00;98963.03;5586447;31;33810;-76
2023/08/06 01:09:41;;;;;;;20.15;13.62;;;;;;;19.03;100.00;98978.38;5586357;31;33653;-77
2023/08/06 01:13:16;;;;;;;21.60;13.02;;;;;;;19.02;100.00;98978.66;5586406;31;33632;-77
2023/08/06 01:16:20;;;;;;;22.33;12.90;;;;;;;19.09;100.00;98976.56;5586194;31;33974;-76
2023/08/06 01:19:24;;;;;;;19.42;11.77;;;;;;;19.17;100.00;98973.38;5586562;31;34627;-76
2023/08/06 01:22:26;;;;;;;19.25;11.02;;;;;;;19.08;100.00;98962.28;5586102;31;33953;-77
2023/08/06 01:25:35;;;;;;;16.65;10.43;;;;;;;18.98;100.00;98967.59;5586477;31;33770;-78
2023/08/06 01:28:50;;;;;;;14.87;9.27;;;;;;;18.81;100.00;98953.47;5585930;31;33858;-78
2023/08/06 01:31:56;;;;;;;14.05;9.98;;;;;;;18.62;100.00;98961.09;5586063;31;33937;-78
2023/08/06 01:35:00;;;;;;;14.20;8.90;;;;;;;18.58;100.00;98956.50;5588472;31;33966;-78
2023/08/06 01:38:04;;;;;;;12.32;9.10;;;;;;;18.49;100.00;98956.09;5588588;31;33961;-78
2023/08/06 01:41:06;;;;;;;14.85;9.43;;;;;;;18.47;100.00;98950.19;5588559;31;33917;-78
2023/08/06 01:44:11;;;;;;;19.40;11.00;;;;;;;18.43;100.00;98948.25;5588614;31;34440;-77
2023/08/06 01:47:13;;;;;;;15.00;9.32;;;;;;;18.46;100.00;98950.44;5587488;31;33868;-78
2023/08/06 01:50:16;;;;;;;11.05;8.43;;;;;;;18.45;100.00;98946.94;5588292;31;34393;-77
2023/08/06 01:53:20;;;;;;;13.18;8.85;;;;;;;18.48;100.00;98938.38;5588477;31;34272;-78
2023/08/06 01:56:22;;;;;;;16.75;10.07;;;;;;;18.39;100.00;98926.47;5588317;31;34523;-77
2023/08/06 01:59:25;;;;;;;14.90;9.60;;;;;;;18.38;100.00;98930.22;5588360;31;33828;-78
2023/08/06 02:02:28;;;;;;;15.55;9.30;;;;;;;18.48;100.00;98914.22;5587348;31;33783;-77
2023/08/06 02:05:31;;;;;;;16.77;9.88;;;;;;;18.45;100.00;98911.19;5588571;31;33736;-79
2023/08/06 02:08:33;;;;;;;15.45;9.00;;;;;;;18.45;100.00;98900.47;5587289;31;34417;-79
2023/08/06 02:11:36;;;;;;;14.73;10.15;;;;;;;18.41;100.00;98889.44;5588338;31;34731;-78
2023/08/06 02:14:39;;;;;;;16.55;10.38;;;;;;;18.40;100.00;98898.53;5588744;31;33610;-79
2023/08/06 02:17:42;;;;;;;17.20;10.32;;;;;;;18.42;100.00;98888.37;5588486;31;34055;-79
2023/08/06 02:20:58;;;;;;;17.80;10.40;;;;;;;18.45;100.00;98889.72;5588872;31;34495;-79
2023/08/06 02:24:00;;;;;;;22.23;10.48;;;;;;;18.45;100.00;98889.72;5588356;31;33921;-79
2023/08/06 02:27:05;;;;;;;16.50;10.00;;;;;;;18.41;100.00;98884.06;5588138;31;34538;-79
2023/08/06 02:30:08;;;;;;;15.88;9.77;;;;;;;18.39;100.00;98871.97;5587941;31;33795;-79
2023/08/06 02:33:10;;;;;;;20.60;10.25;;;;;;;18.47;100.00;98874.19;5588107;31;33733;-79
2023/08/06 02:36:13;;;;;;;16.45;10.68;;;;;;;18.49;100.00;98862.09;5588085;31;33864;-78
2023/08/06 02:39:16;;;;;;;14.00;9.85;;;;;;;18.56;100.00;98865.44;5588096;31;33777;-78
2023/08/06 02:42:19;;;;;;;13.80;10.55;;;;;;;18.56;100.00;98862.75;5588212;31;34747;-78
2023/08/06 02:45:21;;;;;;;15.02;10.18;;;;;;;18.55;100.00;98857.63;5586913;31;33884;-77
2023/08/06 02:48:24;;;;;;;12.95;10.05;;;;;;;18.53;100.00;98855.22;5587995;31;33892;-78
2023/08/06 02:51:27;;;;;;;13.27;9.57;;;;;;;18.48;100.00;98857.00;5588194;31;33731;-77
2023/08/06 02:54:31;;;;;;;18.33;10.82;;;;;;;18.44;100.00;98867.44;5587862;31;33907;-78
2023/08/06 02:57:34;;;;;;;17.10;10.85;;;;;;;18.46;100.00;98868.00;5588155;31;34532;-77
2023/08/06 03:00:37;;;;;;;16.40;10.82;;;;;;;18.48;100.00;98857.81;5587870;31;33760;-77
2023/08/06 03:03:40;;;;;;;17.73;10.82;;;;;;;18.53;100.00;98852.53;5587852;31;34532;-78
2023/08/06 03:06:43;;;;;;;21.15;10.77;;;;;;;18.60;100.00;98847.72;5587989;31;34645;-77
2023/08/06 03:09:45;;;;;;;18.10;10.52;;;;;;;18.62;100.00;98856.34;5587550;31;34506;-77
2023/08/06 03:12:48;;;;;;;14.82;11.07;;;;;;;18.61;100.00;98848.53;5587742;31;33782;-76
2023/08/06 03:15:53;;;;;;;16.27;10.52;;;;;;;18.67;100.00;98853.72;5587724;31;33714;-77
2023/08/06 03:18:56;;;;;;;14.82;9.73;;;;;;;18.66;100.00;98853.94;5587660;31;33861;-78
2023/08/06 03:21:59;;;;;;;13.40;9.90;;;;;;;18.68;100.00;98843.78;5586698;31;33856;-76
2023/08/06 03:25:03;;;;;;;13.23;9.07;;;;;;;18.69;100.00;98848.06;5587568;31;35051;-76
2023/08/06 03:28:05;;;;;;;16.45;10.23;;;;;;;18.70;100.00;98854.25;5587428;31;34572;-76
2023/08/06 03:31:09;;;;;;;15.27;9.18;;;;;;;18.71;100.00;98845.94;5587437;31;34312;-77
2023/08/06 03:34:12;;;;;;;14.25;10.27;;;;;;;18.74;100.00;98849.97;5587796;31;34491;-77
2023/08/06 03:37:15;;;;;;;16.12;10.43;;;;;;;18.69;100.00;98850.75;5587331;31;33988;-77
2023/08/06 03:40:18;;;;;;;14.75;10.10;;;;;;;18.74;100.00;98841.91;5587439;31;34476;-76
2023/08/06 03:43:21;;;;;;;14.05;9.70;;;;;;;18.71;100.00;98840.56;5585317;31;33425;-76
2023/08/06 03:46:24;;;;;;;16.20;10.50;;;;;;;18.66;100.00;98840.53;5583622;31;33908;-77
2023/08/06 03:49:28;;;;;;;15.38;9.27;;;;;;;18.59;100.00;98842.59;5587455;31;33937;-76
2023/08/06 03:52:31;;;;;;;11.65;8.60;;;;;;;18.43;100.00;98838.97;5586842;31;34463;-76
2023/08/06 03:55:34;;;;;;;12.95;8.13;;;;;;;18.34;100.00;98843.19;5587037;31;33616;-76
2023/08/06 03:58:36;;;;;;;11.75;8.10;;;;;;;18.31;100.00;98830.25;5587627;31;33648;-76
2023/08/06 04:01:40;;;;;;;12.05;7.50;;;;;;;18.34;100.00;98831.66;5587393;31;34408;-75
2023/08/06 04:04:42;;;;;;;13.05;8.27;;;;;;;18.23;100.00;98839.59;5587247;31;33876;-75
2023/08/06 04:07:45;;;;;;;12.82;8.25;;;;;;;18.27;100.00;98834.53;5587196;31;33852;-76
2023/08/06 04:10:52;;;;;;;8.13;5.80;;;;;;;18.29;100.00;98837.78;5587289;31;33951;-73
2023/08/06 04:13:55;;;;;;;9.20;6.45;;;;;;;17.98;100.00;98841.22;5587213;31;33866;-74
2023/08/06 04:16:59;;;;;;;10.48;6.57;;;;;;;17.61;100.00;98836.53;5587204;31;34275;-72
2023/08/06 04:20:02;;;;;;;11.27;6.97;;;;;;;17.44;100.00;98829.59;5587105;31;34574;-73
2023/08/06 04:23:06;;;;;;;11.15;7.35;;;;;;;17.27;100.00;98825.09;5587216;31;33793;-72
2023/08/06 04:26:09;;;;;;;9.68;6.97;;;;;;;17.17;100.00;98816.94;5587291;31;33702;-71
2023/08/06 04:29:12;;;;;;;8.65;6.07;;;;;;;17.09;100.00;98809.31;5586489;31;33792;-71
2023/08/06 04:32:15;;;;;;;8.93;5.97;;;;;;;17.06;100.00;98814.34;5586982;31;34401;-71
2023/08/06 04:35:18;;;;;;;7.65;5.45;;;;;;;17.04;100.00;98821.84;5587252;31;33829;-70
2023/08/06 04:38:25;;;;;;;9.70;5.22;;;;;;;17.00;100.00;98824.19;5595377;31;34807;-69
2023/08/06 04:41:28;;;;;;;5.57;4.35;;;;;;;17.01;100.00;98820.47;5591109;31;34008;-71
2023/08/06 04:44:30;;;;;;;6.15;4.10;;;;;;;17.01;100.00;98827.69;5602790;31;33938;-70
2023/08/06 04:47:33;;;;;;;7.25;3.67;;;;;;;16.93;100.00;98815.53;5605623;31;33811;-71
2023/08/06 04:50:36;;;;;;;2.47;1.98;;;;;;;16.98;100.00;98820.16;5606328;31;33848;-70
2023/08/06 04:53:39;;;;;;;2.95;2.17;;;;;;;16.98;100.00;98823.66;5606395;31;33826;-70
2023/08/06 04:56:41;;;;;;;4.10;1.62;;;;;;;17.09;100.00;98816.56;5605538;31;34103;-70
2023/08/06 04:59:44;;;;;;;2.12;1.23;;;;;;;17.18;100.00;98812.37;5606397;31;34239;-69
2023/08/06 05:02:47;;;;;;;2.47;0.98;;;;;;;17.21;100.00;98806.53;5606399;31;33665;-69
2023/08/06 05:05:50;;;;;;;0.62;0.52;;;;;;;17.20;100.00;98799.53;5606223;31;34418;-71
2023/08/06 05:08:52;;;;;;;2.95;0.65;;;;;;;17.20;100.00;98802.22;5604904;31;34106;-70
2023/08/06 05:11:55;;;;;;;0.82;0.47;;;;;;;17.12;100.00;98798.09;5606065;31;33793;-69
2023/08/06 05:14:58;;;;;;;1.45;0.60;;;;;;;17.15;100.00;98797.59;5606287;31;33914;-70
2023/08/06 05:18:01;;;;;;;1.20;0.57;;;;;;;17.17;100.00;98784.78;5605851;31;33869;-70
2023/08/06 05:21:03;;;;;;;1.20;0.68;;;;;;;17.26;100.00;98796.69;5605964;31;34632;-70
2023/08/06 05:24:06;;;;;;;0.70;0.60;;;;;;;17.26;100.00;98793.19;5605908;31;33685;-70
2023/08/06 05:27:09;;;;;;;0.82;0.47;;;;;;;17.34;100.00;98785.50;5604290;31;33634;-70
2023/08/06 05:30:12;;;;;;;0.80;0.40;;;;;;;17.21;100.00;98790.44;5605784;31;33906;-70
2023/08/06 05:33:14;;;;;;;1.80;0.50;;;;;;;17.16;100.00;98793.88;5605732;31;33901;-70
2023/08/06 05:36:17;;;;;;;2.90;0.50;;;;;;;17.20;100.00;98791.50;5605664;31;33899;-71
2023/08/06 05:39:20;;;;;;;3.65;0.60;;;;;;;17.22;100.00;98797.44;5605407;31;34526;-71
2023/08/06 05:42:23;;;;;;;1.98;0.40;;;;;;;17.31;100.00;98795.94;5605546;31;34651;-72
2023/08/06 05:45:25;;;;;;;0.32;0.30;;;;;;;17.47;100.00;98796.94;5604439;31;33997;-73
2023/08/06 05:48:28;;;;;;;1.00;0.60;;;;;;;17.31;100.00;98787.88;5604444;31;33970;-72
2023/08/06 05:51:31;;;;;;;2.58;0.30;;;;;;;17.38;100.00;98793.84;5605615;31;33567;-72
2023/08/06 05:54:34;;;;;;;1.73;0.50;;;;;;;17.42;100.00;98788.81;5605034;31;34938;-72
2023/08/06 05:57:36;;;;;;;0.62;0.40;;;;;;;17.48;100.00;98787.81;5602442;31;33687;-72
2023/08/06 06:00:39;;;;;;;1.25;0.30;;;;;;;17.38;100.00;98786.63;5585094;31;34583;-72
2023/08/06 06:03:43;;;;;;;1.33;0.20;;;;;;;17.41;100.00;98787.19;5585457;31;33552;-73
2023/08/06 06:06:46;;;;;;;2.00;0.30;;;;;;;17.28;100.00;98778.47;5584462;31;34723;-74
2023/08/06 06:09:48;;;;;;;0.43;0.20;;;;;;;17.39;100.00;98772.16;5585042;31;34118;-74
2023/08/06 06:12:51;;;;;;;1.85;0.20;;;;;;;17.62;100.00;98775.69;5585193;31;33550;-73
2023/08/06 06:15:55;;;;;;;0.50;0.20;;;;;;;17.65;100.00;98770.62;5585507;31;33465;-73
2023/08/06 06:18:58;;;;;;;1.62;0.40;;;;;;;17.63;100.00;98769.22;5585942;31;33789;-72
2023/08/06 06:22:01;;;;;;;0.68;0.40;;;;;;;17.46;100.00;98765.81;5587055;31;34461;-73
2023/08/06 06:25:04;;;;;;;0.85;0.30;;;;;;;17.52;100.00;98767.50;5588002;31;33927;-74
2023/08/06 06:28:07;;;;;;;0.30;0.20;;;;;;;17.67;100.00;98770.38;5588154;31;33767;-73
2023/08/06 06:31:09;;;;;;;0.30;0.22;;;;;;;17.76;100.00;98772.34;5603574;31;33809;-74
2023/08/06 06:34:12;;;;;;;0.50;0.20;;;;;;;17.92;100.00;98780.50;5587968;31;33814;-75
2023/08/06 06:37:15;;;;;;;0.95;0.37;;;;;;;17.96;100.00;98787.81;5587934;31;34002;-74
2023/08/06 06:40:18;;;;;;;0.85;0.30;;;;;;;17.86;100.00;98800.34;5587806;31;34173;-74
2023/08/06 06:43:20;;;;;;;1.00;0.20;;;;;;;17.73;100.00;98805.03;5587666;31;33687;-70
2023/08/06 06:46:23;;;;;;;0.93;0.40;;;;;;;17.51;100.00;98808.75;5587857;31;33762;-73
2023/08/06 06:49:25;;;;;;;0.20;0.20;;;;;;;17.34;100.00;98806.97;5587169;31;33930;-73
2023/08/06 06:52:29;;;;;;;0.40;0.30;;;;;;;17.22;100.00;98813.50;5597490;31;34158;-74
2023/08/06 06:55:32;;;;;;;0.73;0.20;;;;;;;17.28;100.00;98801.81;5593880;31;34637;-73
2023/08/06 06:58:34;;;;;;;0.30;0.30;;;;;;;17.51;100.00;98804.22;5607447;31;34891;-74
2023/08/06 07:01:37;;;;;;;0.55;0.10;;;;;;;17.54;100.00;98792.16;5605950;31;33569;-74
2023/08/06 07:04:40;;;;;;;0.52;0.28;;;;;;;17.69;100.00;98797.72;5589424;31;33561;-74
2023/08/06 07:07:42;;;;;;;0.52;0.32;;;;;;;17.54;100.00;98792.16;5593243;31;34532;-73
2023/08/06 07:10:45;;;;;;;1.33;0.40;;;;;;;17.49;100.00;98790.25;5597950;31;34024;-73
2023/08/06 07:13:55;;;;;;;1.17;0.40;;;;;;;17.34;100.00;98798.91;5607113;31;33878;-74
2023/08/06 07:17:00;;;;;;;0.40;0.30;;;;;;;17.32;100.00;98806.41;5598884;31;33983;-71
2023/08/06 07:20:06;;;;;;;2.25;0.50;;;;;;;17.36;100.00;98804.84;5586984;31;34865;-71
2023/08/06 07:23:10;;;;;;;0.57;0.20;;;;;;;17.38;100.00;98824.16;5597737;31;33776;-72
2023/08/06 07:26:12;;;;;;;0.25;0.25;;;;;;;17.41;100.00;98830.91;5587133;31;34732;-71
2023/08/06 07:29:20;;;;;;;0.60;0.30;;;;;;;17.55;100.00;98832.16;5586301;31;33879;-72
2023/08/06 07:32:23;;;;;;;0.68;0.30;;;;;;;17.45;100.00;98839.25;5586454;31;33757;-72
2023/08/06 07:35:28;;;;;;;0.57;0.30;;;;;;;17.28;100.00;98833.97;5586047;31;33686;-71
2023/08/06 07:38:31;;;;;;;0.55;0.30;;;;;;;17.19;100.00;98828.19;5586297;31;33834;-72
2023/08/06 07:41:35;;;;;;;0.85;0.30;;;;;;;17.37;100.00;98833.28;5587537;31;33821;-72
2023/08/06 07:44:38;;;;;;;0.75;0.20;;;;;;;17.30;100.00;98829.16;5590131;31;134955;-72
2023/08/06 07:47:42;;;;;;;1.15;0.25;;;;;;;17.31;100.00;98828.09;5606710;31;34085;-71
2023/08/06 07:50:50;;;;;;;0.65;0.20;;;;;;;17.26;100.00;98826.16;5606886;31;35058;-72
2023/08/06 07:53:53;;;;;;;2.28;0.88;;;;;;;17.28;100.00;98829.38;5607018;31;34634;-72
2023/08/06 07:56:55;;;;;;;0.70;0.20;;;;;;;17.32;100.00;98827.03;5606669;31;34893;-71
2023/08/06 07:59:58;;;;;;;0.60;0.20;;;;;;;17.17;100.00;98824.16;5599475;31;35240;-70
2023/08/06 08:03:04;;;;;;;0.62;0.20;;;;;;;17.10;100.00;98810.94;5587165;31;34401;-70
2023/08/06 08:06:07;;;;;;;0.55;0.22;;;;;;;16.83;100.00;98807.34;5586932;31;33876;-72
2023/08/06 08:09:09;;;;;;;0.60;0.40;;;;;;;17.15;100.00;98800.28;5586697;31;33881;-69
2023/08/06 08:12:12;;;;;;;0.10;0.10;;;;;;;17.18;100.00;98810.53;5586607;31;33788;-71
2023/08/06 08:15:15;;;;;;;0.85;0.32;;;;;;;17.38;100.00;98807.25;5572754;31;34644;-73
2023/08/06 08:18:18;;;;;;;0.62;0.30;;;;;;;17.54;100.00;98811.75;5586704;31;34568;-70
2023/08/06 08:21:20;;;;;;;0.43;0.20;;;;;;;17.63;100.00;98817.50;5585609;31;33178;-70
2023/08/06 08:24:26;;;;;;;0.30;0.20;;;;;;;17.89;100.00;98822.09;5586793;31;33938;-71
2023/08/06 08:27:29;;;;;;;0.13;0.10;;;;;;;18.08;100.00;98817.19;5585902;31;33922;-70
2023/08/06 08:30:34;;;;;;;1.25;0.28;;;;;;;18.29;100.00;98823.53;5586848;31;33705;-71
2023/08/06 08:33:40;;;;;;;1.12;0.20;;;;;;;18.35;100.00;98844.00;5586458;31;33532;-70
2023/08/06 08:36:47;;;;;;;0.57;0.20;;;;;;;18.28;100.00;98846.91;5585612;31;34773;-70
2023/08/06 08:39:50;;;;;;;0.95;0.20;;;;;;;18.21;100.00;98838.22;5586226;31;33936;-70
2023/08/06 08:42:54;;;;;;;0.17;0.17;;;;;;;18.51;100.00;98841.19;5584044;31;34713;-71
2023/08/06 08:45:59;;;;;;;0.45;0.20;;;;;;;18.02;100.00;98832.41;5585977;31;34649;-71
2023/08/06 08:49:02;;;;;;;0.10;0.10;;;;;;;18.16;100.00;98841.66;5586702;31;34617;-69
2023/08/06 08:52:10;;;;;;;0.28;0.20;;;;;;;17.95;100.00;98841.75;5586121;31;33106;-70
2023/08/06 08:55:15;;;;;;;0.30;0.13;;;;;;;17.84;100.00;98851.53;5589017;31;33904;-70
2023/08/06 08:58:17;;;;;;;0.30;0.17;;;;;;;17.95;100.00;98845.25;5606099;31;34561;-71
2023/08/06 09:01:22;;;;;;;0.40;0.22;;;;;;;17.88;100.00;98847.28;5592028;31;33570;-70
2023/08/06 09:04:31;;;;;;;1.55;0.30;;;;;;;17.88;100.00;98835.75;5605880;31;33834;-69
2023/08/06 09:07:48;;;;;;;0.80;0.20;;;;;;;18.32;100.00;98836.44;5605820;31;34117;-71
2023/08/06 09:11:10;;;;;;;0.20;0.20;;;;;;;18.37;100.00;98837.31;5605750;31;35262;-70
2023/08/06 09:14:13;;;;;;;0.68;0.20;;;;;;;18.61;100.00;98822.50;5605629;31;33908;-72
2023/08/06 09:17:19;;;;;;;2.17;0.40;;;;;;;18.46;100.00;98825.03;5597640;31;33943;-70
2023/08/06 09:20:26;;;;;;;2.28;0.40;;;;;;;18.24;100.00;98810.88;5602514;31;33511;-71
2023/08/06 09:23:30;;;;;;;1.00;0.40;;;;;;;18.21;100.00;98816.75;5605876;31;33628;-70
2023/08/06 09:26:34;;;;;;;1.55;0.85;;;;;;;18.57;100.00;98825.94;5605782;31;34373;-71
2023/08/06 09:29:40;;;;;;;0.57;0.30;;;;;;;18.52;100.00;98833.94;5604682;31;33823;-71
2023/08/06 09:32:50;;;;;;;1.17;0.22;;;;;;;18.66;100.00;98840.53;5605725;31;33865;-71
2023/08/06 09:35:55;;;;;;;3.80;0.40;;;;;;;18.27;100.00;98845.28;5605678;31;33722;-71
2023/08/06 09:38:59;;;;;;;0.68;0.22;;;;;;;18.09;100.00;98851.81;5604748;31;33909;-71
2023/08/06 09:42:06;;;;;;;1.15;0.40;;;;;;;17.82;100.00;98867.06;5605337;31;33917;-69
2023/08/06 09:45:09;;;;;;;1.20;0.60;;;;;;;17.80;100.00;98858.47;5604839;31;34132;-69
2023/08/06 09:48:13;;;;;;;0.65;0.30;;;;;;;17.57;100.00;98864.87;5605326;31;33701;-69
2023/08/06 09:51:17;;;;;;;1.75;0.37;;;;;;;17.56;100.00;98874.00;5605235;31;34314;-69
2023/08/06 09:54:21;;;;;;;0.73;0.30;;;;;;;17.54;100.00;98865.37;5598758;31;33750;-70
2023/08/06 09:57:31;;;;;;;0.60;0.40;;;;;;;17.52;100.00;98870.19;5588703;31;33941;-71
2023/08/06 10:00:43;;;;;;;0.40;0.30;;;;;;;17.59;100.00;98883.44;5587336;31;33533;-69
2023/08/06 10:03:50;;;;;;;1.00;0.20;;;;;;;17.57;100.00;98878.28;5587979;31;34088;-70
2023/08/06 10:06:53;;;;;;;1.17;0.25;;;;;;;17.63;100.00;98889.91;5587699;31;34922;-67
2023/08/06 10:09:56;;;;;;;0.60;0.40;;;;;;;17.58;100.00;98890.63;5587305;31;33706;-69
2023/08/06 10:13:02;;;;;;;0.77;0.30;;;;;;;17.64;100.00;98905.75;5587124;31;33805;-70
2023/08/06 10:16:07;;;;;;;0.37;0.30;;;;;;;17.63;100.00;98893.41;5594226;31;33108;-69
2023/08/06 10:19:17;;;;;;;0.70;0.35;;;;;;;17.46;100.00;98900.69;5596498;31;33783;-71
2023/08/06 10:22:23;;;;;;;3.30;0.40;;;;;;;17.58;100.00;98904.03;5586946;31;33645;-71
2023/08/06 10:25:25;;;;;;;1.42;0.30;;;;;;;17.72;100.00;98909.88;5598419;31;33633;-69
2023/08/06 10:28:37;;;;;;;0.50;0.40;;;;;;;17.67;100.00;98913.31;5602146;31;34537;-69
2023/08/06 10:32:06;;;;;;;0.57;0.30;;;;;;;17.64;100.00;98910.31;5593252;31;33886;-69
2023/08/06 10:35:31;;;;;;;0.50;0.40;;;;;;;17.58;100.00;98916.63;5590401;31;34756;-69
2023/08/06 10:39:18;;;;;;;2.35;1.33;;;;;;;17.47;100.00;98915.72;5593531;31;33768;-69
2023/08/06 10:42:40;;;;;;;0.60;0.40;;;;;;;17.57;100.00;98915.81;5594936;31;34811;-69
2023/08/06 10:45:50;;;;;;;2.15;0.40;;;;;;;17.57;100.00;98915.81;5607109;31;33829;-73
2023/08/06 10:48:52;;;;;;;1.13;0.50;;;;;;;17.50;100.00;98930.47;5607049;31;33846;-70
2023/08/06 10:51:56;;;;;;;0.82;0.30;;;;;;;17.47;100.00;98923.75;5595513;31;33714;-70
2023/08/06 10:55:01;;;;;;;2.05;0.40;;;;;;;17.57;100.00;98920.41;5587453;31;35308;-69
2023/08/06 10:58:04;;;;;;;5.30;0.70;;;;;;;17.75;100.00;98917.44;5586830;31;33740;-69
2023/08/06 11:01:08;;;;;;;1.95;0.50;;;;;;;17.89;100.00;98918.69;5587110;31;33851;-70
2023/08/06 11:04:15;;;;;;;0.40;0.40;;;;;;;17.79;100.00;98930.09;5587735;31;35117;-69
2023/08/06 11:07:18;;;;;;;3.03;0.35;;;;;;;17.85;100.00;98928.28;5587137;31;33924;-69
2023/08/06 11:10:24;;;;;;;0.55;0.30;;;;;;;17.85;100.00;98927.47;5586737;31;33641;-70
2023/08/06 11:13:27;;;;;;;0.77;0.50;;;;;;;17.88;100.00;98932.34;5587029;31;34617;-69
2023/08/06 11:16:39;;;;;;;0.85;0.43;;;;;;;18.01;100.00;98940.03;5586801;31;33560;-69
2023/08/06 11:19:56;;;;;;;1.08;0.50;;;;;;;17.90;100.00;98935.59;5587457;31;33953;-68
2023/08/06 11:23:04;;;;;;;0.43;0.40;;;;;;;18.12;100.00;98947.09;5587820;31;33611;-71
2023/08/06 11:26:11;;;;;;;0.50;0.40;;;;;;;18.01;100.00;98940.81;5587501;31;33871;-69
2023/08/06 11:29:19;;;;;;;1.87;0.40;;;;;;;17.89;100.00;98939.31;5587062;31;34956;-71
2023/08/06 11:32:22;;;;;;;0.80;0.50;;;;;;;17.83;100.00;98934.94;5587143;31;34614;-69
2023/08/06 11:35:25;;;;;;;0.70;0.50;;;;;;;17.79;100.00;98935.47;5587242;31;33945;-70
2023/08/06 11:38:28;;;;;;;1.98;0.50;;;;;;;17.78;100.00;98928.47;5587389;31;33857;-69
2023/08/06 11:41:32;;;;;;;2.00;0.50;;;;;;;17.79;100.00;98924.72;5587138;31;33750;-70
2023/08/06 11:44:36;;;;;;;0.98;0.55;;;;;;;17.96;100.00;98926.53;5580724;31;33527;-70
2023/08/06 11:47:40;;;;;;;0.70;0.50;;;;;;;18.17;100.00;98934.56;5586549;31;33814;-70
2023/08/06 11:50:44;;;;;;;0.90;0.45;;;;;;;18.00;100.00;98939.22;5587132;31;33882;-70
2023/08/06 11:53:49;;;;;;;2.03;0.50;;;;;;;18.06;100.00;98938.19;5587241;31;33962;-72
2023/08/06 11:56:53;;;;;;;0.57;0.40;;;;;;;18.22;100.00;98950.72;5587223;31;34390;-70
2023/08/06 11:59:56;;;;;;;0.40;0.40;;;;;;;18.16;100.00;98945.53;5586822;31;33921;-70
2023/08/06 12:02:59;;;;;;;0.90;0.50;;;;;;;17.97;100.00;98941.56;5586797;31;34528;-70
2023/08/06 12:06:03;;;;;;;1.02;0.50;;;;;;;18.06;100.00;98953.47;5586033;31;32636;-70
2023/08/06 12:09:05;;;;;;;1.30;0.40;;;;;;;18.29;100.00;98957.78;5586755;31;33632;-70
2023/08/06 12:12:08;;;;;;;1.60;0.40;;;;;;;18.19;100.00;98953.09;5586508;31;35678;-70
2023/08/06 12:15:12;;;;;;;0.77;0.50;;;;;;;18.32;100.00;98965.31;5603509;31;33472;-70
2023/08/06 12:18:17;;;;;;;0.60;0.60;;;;;;;18.12;100.00;98953.28;5606482;31;33989;-70
2023/08/06 12:21:24;;;;;;;3.87;0.60;;;;;;;17.96;100.00;98967.56;5606551;31;34033;-70
2023/08/06 12:24:31;;;;;;;1.55;0.70;;;;;;;18.14;100.00;98964.59;5605818;31;33220;-69
2023/08/06 12:27:38;;;;;;;0.75;0.60;;;;;;;18.11;100.00;98966.94;5606637;31;34716;-70
2023/08/06 12:30:44;;;;;;;1.25;0.60;;;;;;;18.14;100.00;98974.53;5592859;31;34549;-71
2023/08/06 12:33:47;;;;;;;1.15;0.50;;;;;;;18.15;100.00;98963.50;5606519;31;34585;-71
2023/08/06 12:36:52;;;;;;;1.52;0.50;;;;;;;17.89;100.00;98963.47;5605500;31;33585;-74
2023/08/06 12:39:56;;;;;;;2.05;0.60;;;;;;;18.01;100.00;98967.66;5606564;31;33834;-70
2023/08/06 12:43:00;;;;;;;1.15;0.70;;;;;;;18.07;100.00;98973.88;5606540;31;33805;-71
2023/08/06 12:46:04;;;;;;;1.20;0.70;;;;;;;18.15;100.00;98974.25;5605415;31;34124;-69
2023/08/06 12:49:07;;;;;;;1.60;0.80;;;;;;;18.22;100.00;98977.56;5606451;31;33700;-70
2023/08/06 12:52:09;;;;;;;2.12;0.75;;;;;;;18.21;100.00;98988.53;5605592;31;34716;-69
2023/08/06 12:55:14;;;;;;;0.93;0.75;;;;;;;18.14;100.00;98996.00;5606037;31;33911;-69
2023/08/06 12:58:19;;;;;;;1.65;0.70;;;;;;;18.20;100.00;99003.06;5606290;31;33779;-71
2023/08/06 13:01:22;;;;;;;3.47;0.90;;;;;;;18.29;100.00;98987.31;5606153;31;33833;-69
2023/08/06 13:04:27;;;;;;;5.97;0.95;;;;;;;17.99;100.00;98980.50;5592109;31;35087;-70
2023/08/06 13:07:32;;;;;;;1.35;0.85;;;;;;;18.06;100.00;98993.72;5605707;31;33903;-70
2023/08/06 13:10:38;;;;;;;1.00;0.70;;;;;;;18.20;100.00;98982.38;5606380;31;33663;-70
2023/08/06 13:13:44;;;;;;;1.12;0.70;;;;;;;18.24;100.00;98982.69;5606039;31;34594;-68
2023/08/06 13:16:47;;;;;;;2.37;0.80;;;;;;;18.28;100.00;98981.13;5605938;31;33787;-69
2023/08/06 13:19:50;;;;;;;2.12;1.00;;;;;;;18.17;100.00;98972.13;5605960;31;33816;-70
2023/08/06 13:22:58;;;;;;;3.60;0.95;;;;;;;18.13;100.00;98984.44;5605050;31;34844;-71
2023/08/06 13:26:01;;;;;;;1.45;1.05;;;;;;;18.16;100.00;98988.47;5606222;31;34655;-71
2023/08/06 13:29:04;;;;;;;1.70;1.10;;;;;;;18.09;100.00;99001.31;5606672;31;34383;-71
2023/08/06 13:32:06;;;;;;;1.60;0.77;;;;;;;18.32;100.00;98984.91;5608366;31;33896;-72
2023/08/06 13:35:09;;;;;;;1.62;0.60;;;;;;;18.45;100.00;98981.84;5608190;31;33704;-70
2023/08/06 13:38:12;;;;;;;4.57;1.23;;;;;;;18.51;100.00;98999.62;5608576;31;33770;-70
2023/08/06 13:41:16;;;;;;;3.15;0.70;;;;;;;18.49;100.00;98984.84;5608007;31;33758;-70
2023/08/06 13:44:19;;;;;;;1.27;0.93;;;;;;;18.39;100.00;99004.34;5607933;31;33778;-69
2023/08/06 13:47:22;;;;;;;1.10;0.82;;;;;;;18.56;100.00;99013.16;5608117;31;33842;-70
2023/08/06 13:50:26;;;;;;;1.17;0.80;;;;;;;18.57;100.00;99020.16;5608133;31;33901;-70
2023/08/06 13:53:29;;;;;;;0.93;0.88;;;;;;;18.70;100.00;99013.56;5607943;31;34175;-71
2023/08/06 13:56:37;;;;;;;1.92;1.00;;;;;;;18.78;100.00;99026.56;5607482;31;33635;-69
2023/08/06 13:59:46;;;;;;;3.92;1.10;;;;;;;18.51;100.00;99017.63;5608432;31;33823;-69
2023/08/06 14:02:50;;;;;;;2.08;1.00;;;;;;;18.80;100.00;99027.09;5607901;31;33847;-69
2023/08/06 14:05:56;;;;;;;1.17;1.00;;;;;;;18.81;100.00;99030.59;5606332;31;33932;-68
2023/08/06 14:08:59;;;;;;;1.40;0.90;;;;;;;18.80;100.00;99027.09;5588131;31;34439;-70
2023/08/06 14:12:03;;;;;;;1.48;1.02;;;;;;;18.56;100.00;99018.53;5588076;31;35056;-70
2023/08/06 14:15:08;;;;;;;1.40;1.00;;;;;;;18.61;100.00;99029.31;5588002;31;33907;-69